sensor_id;sensor_type;location;lat;lon;timestamp;P1;durP1;ratioP1;P2;durP2;ratioP2
27313;SDS011;14800;48.174;9.798;2023-05-19T00:01:05;3.78;;;1.60;;
27313;SDS011;14800;48.174;9.798;2023-05-19T00:03:35;2.17;;;1.88;;
27313;SDS011;14800;48.174;9.798;2023-05-19T00:06:04;1.80;;;1.42;;
27313;SDS011;14800;48.174;9.798;2023-05-19T00:08:34;2.25;;;1.70;;
27313;SDS011;14800;48.174;9.798;2023-05-19T00:11:02;1.70;;;1.60;;
27313;SDS011;14800;48.174;9.798;2023-05-19T00:13:28;1.90;;;1.60;;
27313;SDS011;14800;48.174;9.798;2023-05-19T00:15:54;2.42;;;1.70;;
27313;SDS011;14800;48.174;9.798;2023-05-19T00:18:20;2.15;;;1.70;;
27313;SDS011;14800;48.174;9.798;2023-05-19T00:20:47;3.22;;;2.08;;
27313;SDS011;14800;48.174;9.798;2023-05-19T00:23:13;3.97;;;2.00;;
27313;SDS011;14800;48.174;9.798;2023-05-19T00:25:38;2.75;;;1.70;;
27313;SDS011;14800;48.174;9.798;2023-05-19T00:28:04;1.92;;;1.40;;
27313;SDS011;14800;48.174;9.798;2023-05-19T00:30:30;3.05;;;1.90;;
27313;SDS011;14800;48.174;9.798;2023-05-19T00:32:56;4.03;;;1.70;;
27313;SDS011;14800;48.174;9.798;2023-05-19T00:35:24;2.30;;;1.60;;
27313;SDS011;14800;48.174;9.798;2023-05-19T00:37:50;1.85;;;1.52;;
27313;SDS011;14800;48.174;9.798;2023-05-19T00:40:16;1.63;;;1.52;;
27313;SDS011;14800;48.174;9.798;2023-05-19T00:42:42;2.08;;;1.60;;
27313;SDS011;14800;48.174;9.798;2023-05-19T00:45:08;3.05;;;1.60;;
27313;SDS011;14800;48.174;9.798;2023-05-19T00:47:33;3.17;;;1.80;;
27313;SDS011;14800;48.174;9.798;2023-05-19T00:49:59;1.67;;;1.40;;
27313;SDS011;14800;48.174;9.798;2023-05-19T00:52:25;2.15;;;1.95;;
27313;SDS011;14800;48.174;9.798;2023-05-19T00:54:52;2.17;;;1.60;;
27313;SDS011;14800;48.174;9.798;2023-05-19T00:57:19;1.75;;;1.60;;
27313;SDS011;14800;48.174;9.798;2023-05-19T00:59:45;1.80;;;1.70;;
27313;SDS011;14800;48.174;9.798;2023-05-19T01:02:14;3.20;;;1.92;;
27313;SDS011;14800;48.174;9.798;2023-05-19T01:04:40;2.35;;;1.70;;
27313;SDS011;14800;48.174;9.798;2023-05-19T01:07:07;1.92;;;1.70;;
27313;SDS011;14800;48.174;9.798;2023-05-19T01:09:34;3.75;;;1.85;;
27313;SDS011;14800;48.174;9.798;2023-05-19T01:12:01;2.70;;;2.20;;
27313;SDS011;14800;48.174;9.798;2023-05-19T01:14:27;2.47;;;1.80;;
27313;SDS011;14800;48.174;9.798;2023-05-19T01:16:55;2.75;;;1.80;;
27313;SDS011;14800;48.174;9.798;2023-05-19T01:19:40;2.78;;;2.20;;
27313;SDS011;14800;48.174;9.798;2023-05-19T01:31:13;4.03;;;2.47;;
27313;SDS011;14800;48.174;9.798;2023-05-19T01:33:40;3.78;;;2.80;;
27313;SDS011;14800;48.174;9.798;2023-05-19T01:36:08;3.67;;;2.47;;
27313;SDS011;14800;48.174;9.798;2023-05-19T01:38:36;2.78;;;2.45;;
27313;SDS011;14800;48.174;9.798;2023-05-19T01:41:03;4.57;;;2.70;;
27313;SDS011;14800;48.174;9.798;2023-05-19T01:43:30;3.88;;;2.70;;
27313;SDS011;14800;48.174;9.798;2023-05-19T01:45:57;3.78;;;2.33;;
27313;SDS011;14800;48.174;9.798;2023-05-19T01:48:23;3.08;;;2.40;;
27313;SDS011;14800;48.174;9.798;2023-05-19T01:50:50;6.85;;;3.15;;
27313;SDS011;14800;48.174;9.798;2023-05-19T01:53:15;3.75;;;2.88;;
27313;SDS011;14800;48.174;9.798;2023-05-19T01:55:42;4.25;;;2.97;;
27313;SDS011;14800;48.174;9.798;2023-05-19T02:01:06;5.22;;;2.75;;
27313;SDS011;14800;48.174;9.798;2023-05-19T02:03:52;4.18;;;2.80;;
27313;SDS011;14800;48.174;9.798;2023-05-19T02:09:11;5.18;;;3.00;;
27313;SDS011;14800;48.174;9.798;2023-05-19T02:11:58;7.60;;;3.28;;
27313;SDS011;14800;48.174;9.798;2023-05-19T02:14:32;5.40;;;3.05;;
27313;SDS011;14800;48.174;9.798;2023-05-19T02:17:01;5.13;;;3.20;;
27313;SDS011;14800;48.174;9.798;2023-05-19T02:19:30;6.38;;;3.10;;
27313;SDS011;14800;48.174;9.798;2023-05-19T02:21:57;4.85;;;2.97;;
27313;SDS011;14800;48.174;9.798;2023-05-19T02:24:23;5.82;;;3.00;;
27313;SDS011;14800;48.174;9.798;2023-05-19T02:26:49;9.05;;;3.22;;
27313;SDS011;14800;48.174;9.798;2023-05-19T02:29:16;5.57;;;3.40;;
27313;SDS011;14800;48.174;9.798;2023-05-19T02:31:41;7.50;;;3.63;;
27313;SDS011;14800;48.174;9.798;2023-05-19T02:34:07;7.68;;;3.42;;
27313;SDS011;14800;48.174;9.798;2023-05-19T02:36:33;4.82;;;3.03;;
27313;SDS011;14800;48.174;9.798;2023-05-19T02:39:00;7.53;;;2.97;;
27313;SDS011;14800;48.174;9.798;2023-05-19T02:41:27;7.65;;;3.10;;
27313;SDS011;14800;48.174;9.798;2023-05-19T02:43:52;5.90;;;3.65;;
27313;SDS011;14800;48.174;9.798;2023-05-19T02:46:18;6.72;;;3.28;;
27313;SDS011;14800;48.174;9.798;2023-05-19T02:48:44;5.50;;;3.25;;
27313;SDS011;14800;48.174;9.798;2023-05-19T02:51:10;4.90;;;3.00;;
27313;SDS011;14800;48.174;9.798;2023-05-19T02:53:35;7.13;;;3.60;;
27313;SDS011;14800;48.174;9.798;2023-05-19T02:56:01;7.32;;;3.80;;
27313;SDS011;14800;48.174;9.798;2023-05-19T02:58:27;8.38;;;4.30;;
27313;SDS011;14800;48.174;9.798;2023-05-19T03:00:53;5.85;;;3.17;;
27313;SDS011;14800;48.174;9.798;2023-05-19T03:03:19;6.00;;;3.38;;
27313;SDS011;14800;48.174;9.798;2023-05-19T03:05:45;8.90;;;4.32;;
27313;SDS011;14800;48.174;9.798;2023-05-19T03:08:11;5.22;;;3.58;;
27313;SDS011;14800;48.174;9.798;2023-05-19T03:10:37;7.60;;;3.58;;
27313;SDS011;14800;48.174;9.798;2023-05-19T03:13:02;7.45;;;3.45;;
27313;SDS011;14800;48.174;9.798;2023-05-19T03:15:28;8.18;;;3.63;;
27313;SDS011;14800;48.174;9.798;2023-05-19T03:17:54;6.95;;;3.75;;
27313;SDS011;14800;48.174;9.798;2023-05-19T03:20:20;7.30;;;3.45;;
27313;SDS011;14800;48.174;9.798;2023-05-19T03:22:46;7.85;;;3.67;;
27313;SDS011;14800;48.174;9.798;2023-05-19T03:25:12;8.48;;;3.70;;
27313;SDS011;14800;48.174;9.798;2023-05-19T03:27:37;12.35;;;3.60;;
27313;SDS011;14800;48.174;9.798;2023-05-19T03:30:03;8.00;;;3.70;;
27313;SDS011;14800;48.174;9.798;2023-05-19T03:32:29;12.82;;;3.63;;
27313;SDS011;14800;48.174;9.798;2023-05-19T03:34:56;8.57;;;3.58;;
27313;SDS011;14800;48.174;9.798;2023-05-19T03:37:22;7.63;;;3.65;;
27313;SDS011;14800;48.174;9.798;2023-05-19T03:39:48;9.13;;;3.53;;
27313;SDS011;14800;48.174;9.798;2023-05-19T03:42:13;7.82;;;3.47;;
27313;SDS011;14800;48.174;9.798;2023-05-19T03:44:39;7.57;;;3.50;;
27313;SDS011;14800;48.174;9.798;2023-05-19T03:47:05;8.90;;;3.60;;
27313;SDS011;14800;48.174;9.798;2023-05-19T03:49:31;8.20;;;3.60;;
27313;SDS011;14800;48.174;9.798;2023-05-19T03:52:03;11.00;;;3.83;;
27313;SDS011;14800;48.174;9.798;2023-05-19T03:54:29;10.30;;;3.58;;
27313;SDS011;14800;48.174;9.798;2023-05-19T03:56:55;10.15;;;3.50;;
27313;SDS011;14800;48.174;9.798;2023-05-19T03:59:21;10.38;;;3.67;;
27313;SDS011;14800;48.174;9.798;2023-05-19T04:01:47;9.55;;;3.90;;
27313;SDS011;14800;48.174;9.798;2023-05-19T04:04:13;14.25;;;3.90;;
27313;SDS011;14800;48.174;9.798;2023-05-19T04:06:38;8.60;;;3.67;;
27313;SDS011;14800;48.174;9.798;2023-05-19T04:09:09;4.65;;;3.20;;
27313;SDS011;14800;48.174;9.798;2023-05-19T04:11:39;11.55;;;3.40;;
27313;SDS011;14800;48.174;9.798;2023-05-19T04:14:05;10.05;;;3.30;;
27313;SDS011;14800;48.174;9.798;2023-05-19T04:16:31;8.23;;;3.30;;
27313;SDS011;14800;48.174;9.798;2023-05-19T04:18:57;9.60;;;3.50;;
27313;SDS011;14800;48.174;9.798;2023-05-19T04:21:22;6.78;;;3.38;;
27313;SDS011;14800;48.174;9.798;2023-05-19T04:23:48;9.25;;;3.22;;
27313;SDS011;14800;48.174;9.798;2023-05-19T04:26:14;8.60;;;3.15;;
27313;SDS011;14800;48.174;9.798;2023-05-19T04:28:40;9.70;;;3.58;;
27313;SDS011;14800;48.174;9.798;2023-05-19T04:31:08;6.80;;;2.97;;
27313;SDS011;14800;48.174;9.798;2023-05-19T04:33:37;8.98;;;3.40;;
27313;SDS011;14800;48.174;9.798;2023-05-19T04:36:04;7.50;;;3.35;;
27313;SDS011;14800;48.174;9.798;2023-05-19T04:38:33;6.20;;;3.22;;
27313;SDS011;14800;48.174;9.798;2023-05-19T04:40:59;7.30;;;2.75;;
27313;SDS011;14800;48.174;9.798;2023-05-19T04:43:26;6.85;;;3.45;;
27313;SDS011;14800;48.174;9.798;2023-05-19T04:45:52;8.75;;;3.13;;
27313;SDS011;14800;48.174;9.798;2023-05-19T04:48:18;5.78;;;3.25;;
27313;SDS011;14800;48.174;9.798;2023-05-19T04:50:45;6.05;;;3.40;;
27313;SDS011;14800;48.174;9.798;2023-05-19T04:53:13;8.30;;;3.40;;
27313;SDS011;14800;48.174;9.798;2023-05-19T04:55:42;8.82;;;3.33;;
27313;SDS011;14800;48.174;9.798;2023-05-19T04:58:08;8.18;;;3.55;;
27313;SDS011;14800;48.174;9.798;2023-05-19T05:00:34;7.22;;;3.25;;
27313;SDS011;14800;48.174;9.798;2023-05-19T05:03:00;5.90;;;3.35;;
27313;SDS011;14800;48.174;9.798;2023-05-19T05:05:28;9.93;;;3.90;;
27313;SDS011;14800;48.174;9.798;2023-05-19T05:07:54;8.57;;;3.28;;
27313;SDS011;14800;48.174;9.798;2023-05-19T05:10:21;6.45;;;3.15;;
27313;SDS011;14800;48.174;9.798;2023-05-19T05:12:47;6.93;;;3.00;;
27313;SDS011;14800;48.174;9.798;2023-05-19T05:15:13;9.85;;;3.33;;
27313;SDS011;14800;48.174;9.798;2023-05-19T05:17:39;7.80;;;3.13;;
27313;SDS011;14800;48.174;9.798;2023-05-19T05:20:05;8.80;;;3.63;;
27313;SDS011;14800;48.174;9.798;2023-05-19T05:22:31;7.90;;;2.95;;
27313;SDS011;14800;48.174;9.798;2023-05-19T05:24:57;9.20;;;3.10;;
27313;SDS011;14800;48.174;9.798;2023-05-19T05:27:23;7.90;;;3.03;;
27313;SDS011;14800;48.174;9.798;2023-05-19T05:29:50;6.00;;;3.25;;
27313;SDS011;14800;48.174;9.798;2023-05-19T05:32:16;7.60;;;3.13;;
27313;SDS011;14800;48.174;9.798;2023-05-19T05:34:42;5.10;;;2.83;;
27313;SDS011;14800;48.174;9.798;2023-05-19T05:37:07;9.07;;;3.70;;
27313;SDS011;14800;48.174;9.798;2023-05-19T05:39:33;7.07;;;3.50;;
27313;SDS011;14800;48.174;9.798;2023-05-19T05:41:58;6.70;;;3.45;;
27313;SDS011;14800;48.174;9.798;2023-05-19T05:44:24;6.65;;;3.03;;
27313;SDS011;14800;48.174;9.798;2023-05-19T05:46:50;7.20;;;3.15;;
27313;SDS011;14800;48.174;9.798;2023-05-19T05:49:16;7.03;;;2.85;;
27313;SDS011;14800;48.174;9.798;2023-05-19T05:51:42;6.60;;;3.20;;
27313;SDS011;14800;48.174;9.798;2023-05-19T05:54:07;5.55;;;3.20;;
27313;SDS011;14800;48.174;9.798;2023-05-19T05:56:36;10.88;;;3.28;;
27313;SDS011;14800;48.174;9.798;2023-05-19T05:59:02;7.80;;;3.10;;
27313;SDS011;14800;48.174;9.798;2023-05-19T06:01:28;7.97;;;3.10;;
27313;SDS011;14800;48.174;9.798;2023-05-19T06:03:56;7.07;;;3.22;;
27313;SDS011;14800;48.174;9.798;2023-05-19T06:06:22;6.55;;;3.13;;
27313;SDS011;14800;48.174;9.798;2023-05-19T06:08:47;8.35;;;2.80;;
27313;SDS011;14800;48.174;9.798;2023-05-19T06:11:13;7.90;;;3.53;;
27313;SDS011;14800;48.174;9.798;2023-05-19T06:13:38;7.10;;;3.22;;
27313;SDS011;14800;48.174;9.798;2023-05-19T06:16:07;7.68;;;3.28;;
27313;SDS011;14800;48.174;9.798;2023-05-19T06:18:33;6.65;;;3.10;;
27313;SDS011;14800;48.174;9.798;2023-05-19T06:20:58;7.78;;;3.13;;
27313;SDS011;14800;48.174;9.798;2023-05-19T06:23:25;10.35;;;3.45;;
27313;SDS011;14800;48.174;9.798;2023-05-19T06:25:53;5.10;;;3.03;;
27313;SDS011;14800;48.174;9.798;2023-05-19T06:28:18;6.95;;;3.17;;
27313;SDS011;14800;48.174;9.798;2023-05-19T06:30:44;6.35;;;2.83;;
27313;SDS011;14800;48.174;9.798;2023-05-19T06:33:09;10.35;;;3.17;;
27313;SDS011;14800;48.174;9.798;2023-05-19T06:35:35;7.80;;;3.20;;
27313;SDS011;14800;48.174;9.798;2023-05-19T06:38:01;6.28;;;3.05;;
27313;SDS011;14800;48.174;9.798;2023-05-19T06:40:27;5.30;;;3.17;;
27313;SDS011;14800;48.174;9.798;2023-05-19T06:42:52;7.53;;;2.70;;
27313;SDS011;14800;48.174;9.798;2023-05-19T06:45:18;8.13;;;3.00;;
27313;SDS011;14800;48.174;9.798;2023-05-19T06:47:46;6.75;;;3.28;;
27313;SDS011;14800;48.174;9.798;2023-05-19T06:50:12;9.25;;;3.05;;
27313;SDS011;14800;48.174;9.798;2023-05-19T06:52:37;8.07;;;2.90;;
27313;SDS011;14800;48.174;9.798;2023-05-19T06:55:03;7.53;;;2.67;;
27313;SDS011;14800;48.174;9.798;2023-05-19T06:57:29;6.43;;;2.78;;
27313;SDS011;14800;48.174;9.798;2023-05-19T06:59:55;4.95;;;2.53;;
27313;SDS011;14800;48.174;9.798;2023-05-19T07:02:21;4.80;;;2.70;;
27313;SDS011;14800;48.174;9.798;2023-05-19T07:04:46;10.10;;;3.05;;
27313;SDS011;14800;48.174;9.798;2023-05-19T07:07:12;6.18;;;2.67;;
27313;SDS011;14800;48.174;9.798;2023-05-19T07:09:37;4.95;;;2.60;;
27313;SDS011;14800;48.174;9.798;2023-05-19T07:12:03;7.50;;;2.88;;
27313;SDS011;14800;48.174;9.798;2023-05-19T07:14:29;5.05;;;3.00;;
27313;SDS011;14800;48.174;9.798;2023-05-19T07:16:55;8.07;;;2.67;;
27313;SDS011;14800;48.174;9.798;2023-05-19T07:19:21;6.13;;;2.90;;
27313;SDS011;14800;48.174;9.798;2023-05-19T07:21:47;6.97;;;2.38;;
27313;SDS011;14800;48.174;9.798;2023-05-19T07:24:13;8.63;;;2.63;;
27313;SDS011;14800;48.174;9.798;2023-05-19T07:26:39;5.60;;;2.58;;
27313;SDS011;14800;48.174;9.798;2023-05-19T07:29:05;5.00;;;2.47;;
27313;SDS011;14800;48.174;9.798;2023-05-19T07:31:31;6.45;;;2.83;;
27313;SDS011;14800;48.174;9.798;2023-05-19T07:33:57;5.13;;;3.00;;
27313;SDS011;14800;48.174;9.798;2023-05-19T07:36:23;4.63;;;2.90;;
27313;SDS011;14800;48.174;9.798;2023-05-19T07:38:48;4.95;;;2.63;;
27313;SDS011;14800;48.174;9.798;2023-05-19T07:41:14;3.90;;;2.42;;
27313;SDS011;14800;48.174;9.798;2023-05-19T07:43:40;8.52;;;3.10;;
27313;SDS011;14800;48.174;9.798;2023-05-19T07:46:06;5.47;;;2.78;;
27313;SDS011;14800;48.174;9.798;2023-05-19T07:48:31;5.55;;;2.70;;
27313;SDS011;14800;48.174;9.798;2023-05-19T07:50:57;8.88;;;3.00;;
27313;SDS011;14800;48.174;9.798;2023-05-19T07:53:23;8.07;;;3.10;;
27313;SDS011;14800;48.174;9.798;2023-05-19T07:55:48;5.25;;;2.90;;
27313;SDS011;14800;48.174;9.798;2023-05-19T07:58:14;6.28;;;2.60;;
27313;SDS011;14800;48.174;9.798;2023-05-19T08:00:40;3.80;;;2.50;;
27313;SDS011;14800;48.174;9.798;2023-05-19T08:03:07;4.70;;;2.65;;
27313;SDS011;14800;48.174;9.798;2023-05-19T08:05:36;5.13;;;2.80;;
27313;SDS011;14800;48.174;9.798;2023-05-19T08:08:02;5.07;;;2.80;;
27313;SDS011;14800;48.174;9.798;2023-05-19T08:10:28;4.28;;;2.22;;
27313;SDS011;14800;48.174;9.798;2023-05-19T08:12:53;4.10;;;2.60;;
27313;SDS011;14800;48.174;9.798;2023-05-19T08:15:19;2.92;;;2.25;;
27313;SDS011;14800;48.174;9.798;2023-05-19T08:17:45;6.45;;;2.63;;
27313;SDS011;14800;48.174;9.798;2023-05-19T08:20:11;4.45;;;2.35;;
27313;SDS011;14800;48.174;9.798;2023-05-19T08:22:37;4.32;;;2.35;;
27313;SDS011;14800;48.174;9.798;2023-05-19T08:25:03;5.72;;;2.95;;
27313;SDS011;14800;48.174;9.798;2023-05-19T08:27:29;5.10;;;2.78;;
27313;SDS011;14800;48.174;9.798;2023-05-19T08:29:55;4.28;;;2.42;;
27313;SDS011;14800;48.174;9.798;2023-05-19T08:32:21;3.40;;;2.50;;
27313;SDS011;14800;48.174;9.798;2023-05-19T08:34:47;2.97;;;2.10;;
27313;SDS011;14800;48.174;9.798;2023-05-19T08:37:12;8.48;;;2.55;;
27313;SDS011;14800;48.174;9.798;2023-05-19T08:39:38;5.00;;;2.50;;
27313;SDS011;14800;48.174;9.798;2023-05-19T08:42:04;4.68;;;2.70;;
27313;SDS011;14800;48.174;9.798;2023-05-19T08:44:32;4.00;;;2.35;;
27313;SDS011;14800;48.174;9.798;2023-05-19T08:46:59;5.03;;;2.85;;
27313;SDS011;14800;48.174;9.798;2023-05-19T08:49:31;4.57;;;2.63;;
27313;SDS011;14800;48.174;9.798;2023-05-19T08:52:01;3.17;;;2.30;;
27313;SDS011;14800;48.174;9.798;2023-05-19T08:54:45;5.80;;;2.80;;
27313;SDS011;14800;48.174;9.798;2023-05-19T08:57:14;3.83;;;2.47;;
27313;SDS011;14800;48.174;9.798;2023-05-19T08:59:41;5.35;;;2.75;;
27313;SDS011;14800;48.174;9.798;2023-05-19T09:02:07;5.45;;;2.53;;
27313;SDS011;14800;48.174;9.798;2023-05-19T09:04:35;4.88;;;2.65;;
27313;SDS011;14800;48.174;9.798;2023-05-19T09:07:01;4.25;;;2.83;;
27313;SDS011;14800;48.174;9.798;2023-05-19T09:09:28;4.47;;;2.70;;
27313;SDS011;14800;48.174;9.798;2023-05-19T09:11:54;7.45;;;2.90;;
27313;SDS011;14800;48.174;9.798;2023-05-19T09:14:20;3.42;;;2.47;;
27313;SDS011;14800;48.174;9.798;2023-05-19T09:16:46;3.45;;;2.30;;
27313;SDS011;14800;48.174;9.798;2023-05-19T09:19:15;5.40;;;2.67;;
27313;SDS011;14800;48.174;9.798;2023-05-19T09:21:41;3.42;;;2.33;;
27313;SDS011;14800;48.174;9.798;2023-05-19T09:24:07;7.22;;;2.70;;
27313;SDS011;14800;48.174;9.798;2023-05-19T09:26:40;4.93;;;2.60;;
27313;SDS011;14800;48.174;9.798;2023-05-19T09:29:10;4.65;;;2.47;;
27313;SDS011;14800;48.174;9.798;2023-05-19T09:31:47;4.93;;;2.80;;
27313;SDS011;14800;48.174;9.798;2023-05-19T09:34:13;5.15;;;2.90;;
27313;SDS011;14800;48.174;9.798;2023-05-19T09:36:39;4.68;;;2.90;;
27313;SDS011;14800;48.174;9.798;2023-05-19T09:39:13;4.00;;;2.70;;
27313;SDS011;14800;48.174;9.798;2023-05-19T09:41:42;3.58;;;2.72;;
27313;SDS011;14800;48.174;9.798;2023-05-19T09:44:24;5.22;;;2.80;;
27313;SDS011;14800;48.174;9.798;2023-05-19T09:46:54;3.38;;;2.55;;
27313;SDS011;14800;48.174;9.798;2023-05-19T09:49:21;4.45;;;2.80;;
27313;SDS011;14800;48.174;9.798;2023-05-19T09:51:48;4.50;;;3.10;;
27313;SDS011;14800;48.174;9.798;2023-05-19T09:54:15;6.35;;;3.35;;
27313;SDS011;14800;48.174;9.798;2023-05-19T09:56:41;4.47;;;2.95;;
27313;SDS011;14800;48.174;9.798;2023-05-19T09:59:07;7.05;;;3.50;;
27313;SDS011;14800;48.174;9.798;2023-05-19T10:01:32;5.18;;;3.00;;
27313;SDS011;14800;48.174;9.798;2023-05-19T10:04:00;4.85;;;3.00;;
27313;SDS011;14800;48.174;9.798;2023-05-19T10:06:28;5.10;;;3.17;;
27313;SDS011;14800;48.174;9.798;2023-05-19T10:08:54;6.13;;;3.38;;
27313;SDS011;14800;48.174;9.798;2023-05-19T10:11:21;5.15;;;3.38;;
27313;SDS011;14800;48.174;9.798;2023-05-19T10:13:49;3.90;;;3.50;;
27313;SDS011;14800;48.174;9.798;2023-05-19T10:16:15;6.75;;;3.78;;
27313;SDS011;14800;48.174;9.798;2023-05-19T10:18:42;6.47;;;4.03;;
27313;SDS011;14800;48.174;9.798;2023-05-19T10:21:08;7.70;;;4.30;;
27313;SDS011;14800;48.174;9.798;2023-05-19T10:23:34;6.00;;;4.15;;
27313;SDS011;14800;48.174;9.798;2023-05-19T10:26:00;5.82;;;4.35;;
27313;SDS011;14800;48.174;9.798;2023-05-19T10:28:33;7.68;;;4.28;;
27313;SDS011;14800;48.174;9.798;2023-05-19T10:31:01;6.68;;;3.83;;
27313;SDS011;14800;48.174;9.798;2023-05-19T10:33:55;7.25;;;4.03;;
27313;SDS011;14800;48.174;9.798;2023-05-19T10:39:25;6.45;;;4.20;;
27313;SDS011;14800;48.174;9.798;2023-05-19T10:42:15;7.85;;;4.10;;
27313;SDS011;14800;48.174;9.798;2023-05-19T10:47:38;4.65;;;3.67;;
27313;SDS011;14800;48.174;9.798;2023-05-19T10:50:05;5.32;;;3.92;;
27313;SDS011;14800;48.174;9.798;2023-05-19T10:52:32;6.00;;;3.80;;
27313;SDS011;14800;48.174;9.798;2023-05-19T10:55:01;4.80;;;3.50;;
27313;SDS011;14800;48.174;9.798;2023-05-19T10:57:28;7.07;;;3.75;;
27313;SDS011;14800;48.174;9.798;2023-05-19T10:59:58;5.85;;;3.95;;
27313;SDS011;14800;48.174;9.798;2023-05-19T11:02:41;6.47;;;4.30;;
27313;SDS011;14800;48.174;9.798;2023-05-19T11:05:14;7.25;;;4.30;;
27313;SDS011;14800;48.174;9.798;2023-05-19T11:07:42;4.53;;;4.00;;
27313;SDS011;14800;48.174;9.798;2023-05-19T11:10:08;7.80;;;4.30;;
27313;SDS011;14800;48.174;9.798;2023-05-19T11:12:42;6.68;;;3.92;;
27313;SDS011;14800;48.174;9.798;2023-05-19T11:15:12;7.40;;;4.32;;
27313;SDS011;14800;48.174;9.798;2023-05-19T11:17:39;5.72;;;4.15;;
27313;SDS011;14800;48.174;9.798;2023-05-19T11:20:06;6.93;;;4.25;;
27313;SDS011;14800;48.174;9.798;2023-05-19T11:22:36;4.18;;;3.78;;
27313;SDS011;14800;48.174;9.798;2023-05-19T11:25:02;8.15;;;4.15;;
27313;SDS011;14800;48.174;9.798;2023-05-19T11:32:27;5.28;;;3.97;;
27313;SDS011;14800;48.174;9.798;2023-05-19T11:34:55;6.03;;;4.00;;
27313;SDS011;14800;48.174;9.798;2023-05-19T11:37:21;5.30;;;3.97;;
27313;SDS011;14800;48.174;9.798;2023-05-19T11:39:47;6.05;;;4.00;;
27313;SDS011;14800;48.174;9.798;2023-05-19T11:42:13;7.38;;;4.13;;
27313;SDS011;14800;48.174;9.798;2023-05-19T11:44:39;6.50;;;4.18;;
27313;SDS011;14800;48.174;9.798;2023-05-19T11:47:09;6.50;;;4.35;;
27313;SDS011;14800;48.174;9.798;2023-05-19T11:49:35;4.88;;;3.97;;
27313;SDS011;14800;48.174;9.798;2023-05-19T11:52:01;5.65;;;3.90;;
27313;SDS011;14800;48.174;9.798;2023-05-19T11:54:28;7.38;;;3.85;;
27313;SDS011;14800;48.174;9.798;2023-05-19T11:56:56;4.38;;;3.50;;
27313;SDS011;14800;48.174;9.798;2023-05-19T11:59:33;6.03;;;3.60;;
27313;SDS011;14800;48.174;9.798;2023-05-19T12:02:19;7.40;;;4.05;;
27313;SDS011;14800;48.174;9.798;2023-05-19T12:04:46;5.72;;;3.67;;
27313;SDS011;14800;48.174;9.798;2023-05-19T12:07:14;5.75;;;3.67;;
27313;SDS011;14800;48.174;9.798;2023-05-19T12:09:44;5.10;;;3.85;;
27313;SDS011;14800;48.174;9.798;2023-05-19T12:12:17;4.25;;;3.85;;
27313;SDS011;14800;48.174;9.798;2023-05-19T12:14:48;5.70;;;4.20;;
27313;SDS011;14800;48.174;9.798;2023-05-19T12:17:15;4.40;;;3.97;;
27313;SDS011;14800;48.174;9.798;2023-05-19T12:19:43;6.13;;;3.70;;
27313;SDS011;14800;48.174;9.798;2023-05-19T12:22:13;4.40;;;3.90;;
27313;SDS011;14800;48.174;9.798;2023-05-19T12:24:41;4.88;;;3.70;;
27313;SDS011;14800;48.174;9.798;2023-05-19T12:29:49;5.03;;;4.18;;
27313;SDS011;14800;48.174;9.798;2023-05-19T12:32:16;5.70;;;4.10;;
27313;SDS011;14800;48.174;9.798;2023-05-19T12:34:42;6.70;;;4.53;;
27313;SDS011;14800;48.174;9.798;2023-05-19T12:37:09;5.60;;;4.28;;
27313;SDS011;14800;48.174;9.798;2023-05-19T12:39:35;5.18;;;4.25;;
27313;SDS011;14800;48.174;9.798;2023-05-19T12:42:07;7.35;;;4.63;;
27313;SDS011;14800;48.174;9.798;2023-05-19T12:44:52;5.78;;;4.95;;
27313;SDS011;14800;48.174;9.798;2023-05-19T12:47:18;7.20;;;4.90;;
27313;SDS011;14800;48.174;9.798;2023-05-19T12:52:29;6.17;;;4.83;;
27313;SDS011;14800;48.174;9.798;2023-05-19T12:55:00;5.10;;;4.50;;
27313;SDS011;14800;48.174;9.798;2023-05-19T12:57:29;6.65;;;4.47;;
27313;SDS011;14800;48.174;9.798;2023-05-19T13:02:34;6.60;;;4.63;;
27313;SDS011;14800;48.174;9.798;2023-05-19T13:05:18;4.75;;;4.25;;
27313;SDS011;14800;48.174;9.798;2023-05-19T13:07:57;6.05;;;4.18;;
27313;SDS011;14800;48.174;9.798;2023-05-19T13:10:28;6.10;;;4.40;;
27313;SDS011;14800;48.174;9.798;2023-05-19T13:12:55;5.70;;;4.68;;
27313;SDS011;14800;48.174;9.798;2023-05-19T13:15:23;9.05;;;4.82;;
27313;SDS011;14800;48.174;9.798;2023-05-19T13:17:50;9.43;;;4.57;;
27313;SDS011;14800;48.174;9.798;2023-05-19T13:20:16;7.18;;;4.80;;
27313;SDS011;14800;48.174;9.798;2023-05-19T13:22:42;6.07;;;4.75;;
27313;SDS011;14800;48.174;9.798;2023-05-19T13:25:08;8.00;;;5.00;;
27313;SDS011;14800;48.174;9.798;2023-05-19T13:27:34;5.72;;;4.82;;
27313;SDS011;14800;48.174;9.798;2023-05-19T13:30:01;7.05;;;5.20;;
27313;SDS011;14800;48.174;9.798;2023-05-19T13:32:28;7.20;;;5.00;;
27313;SDS011;14800;48.174;9.798;2023-05-19T13:34:54;6.32;;;4.80;;
27313;SDS011;14800;48.174;9.798;2023-05-19T13:37:19;8.38;;;4.68;;
27313;SDS011;14800;48.174;9.798;2023-05-19T13:39:45;7.30;;;5.05;;
27313;SDS011;14800;48.174;9.798;2023-05-19T13:42:10;7.18;;;4.93;;
27313;SDS011;14800;48.174;9.798;2023-05-19T13:44:36;5.43;;;4.55;;
27313;SDS011;14800;48.174;9.798;2023-05-19T13:47:02;7.15;;;4.45;;
27313;SDS011;14800;48.174;9.798;2023-05-19T13:49:27;6.03;;;4.68;;
27313;SDS011;14800;48.174;9.798;2023-05-19T13:51:56;6.10;;;4.35;;
27313;SDS011;14800;48.174;9.798;2023-05-19T13:54:22;6.45;;;4.57;;
27313;SDS011;14800;48.174;9.798;2023-05-19T13:56:48;5.85;;;4.85;;
27313;SDS011;14800;48.174;9.798;2023-05-19T13:59:14;7.28;;;5.10;;
27313;SDS011;14800;48.174;9.798;2023-05-19T14:01:41;5.95;;;4.75;;
27313;SDS011;14800;48.174;9.798;2023-05-19T14:04:07;8.23;;;4.90;;
27313;SDS011;14800;48.174;9.798;2023-05-19T14:06:33;7.13;;;4.78;;
27313;SDS011;14800;48.174;9.798;2023-05-19T14:08:59;9.90;;;4.93;;
27313;SDS011;14800;48.174;9.798;2023-05-19T14:11:24;8.70;;;4.72;;
27313;SDS011;14800;48.174;9.798;2023-05-19T14:13:50;6.00;;;4.72;;
27313;SDS011;14800;48.174;9.798;2023-05-19T14:16:16;5.97;;;4.75;;
27313;SDS011;14800;48.174;9.798;2023-05-19T14:18:41;7.55;;;4.70;;
27313;SDS011;14800;48.174;9.798;2023-05-19T14:21:07;8.85;;;4.85;;
27313;SDS011;14800;48.174;9.798;2023-05-19T14:23:33;6.13;;;4.78;;
27313;SDS011;14800;48.174;9.798;2023-05-19T14:25:59;6.72;;;4.38;;
27313;SDS011;14800;48.174;9.798;2023-05-19T14:28:25;6.72;;;4.93;;
27313;SDS011;14800;48.174;9.798;2023-05-19T14:30:50;5.50;;;4.90;;
27313;SDS011;14800;48.174;9.798;2023-05-19T14:33:16;7.53;;;4.78;;
27313;SDS011;14800;48.174;9.798;2023-05-19T14:35:43;6.05;;;4.75;;
27313;SDS011;14800;48.174;9.798;2023-05-19T14:38:09;8.23;;;5.50;;
27313;SDS011;14800;48.174;9.798;2023-05-19T14:40:37;4.88;;;4.35;;
27313;SDS011;14800;48.174;9.798;2023-05-19T14:43:05;6.15;;;4.35;;
27313;SDS011;14800;48.174;9.798;2023-05-19T14:45:31;6.22;;;4.38;;
27313;SDS011;14800;48.174;9.798;2023-05-19T14:47:57;4.78;;;3.90;;
27313;SDS011;14800;48.174;9.798;2023-05-19T14:50:22;4.93;;;4.40;;
27313;SDS011;14800;48.174;9.798;2023-05-19T14:52:48;5.85;;;4.65;;
27313;SDS011;14800;48.174;9.798;2023-05-19T14:55:13;5.13;;;4.35;;
27313;SDS011;14800;48.174;9.798;2023-05-19T14:57:39;7.35;;;4.50;;
27313;SDS011;14800;48.174;9.798;2023-05-19T15:00:05;5.22;;;4.68;;
27313;SDS011;14800;48.174;9.798;2023-05-19T15:02:33;7.20;;;4.53;;
27313;SDS011;14800;48.174;9.798;2023-05-19T15:04:58;4.60;;;3.95;;
27313;SDS011;14800;48.174;9.798;2023-05-19T15:07:24;5.53;;;4.00;;
27313;SDS011;14800;48.174;9.798;2023-05-19T15:09:51;6.25;;;4.57;;
27313;SDS011;14800;48.174;9.798;2023-05-19T15:12:16;4.78;;;4.00;;
27313;SDS011;14800;48.174;9.798;2023-05-19T15:14:42;6.10;;;4.15;;
27313;SDS011;14800;48.174;9.798;2023-05-19T15:17:08;4.22;;;3.83;;
27313;SDS011;14800;48.174;9.798;2023-05-19T15:19:33;5.15;;;3.83;;
27313;SDS011;14800;48.174;9.798;2023-05-19T15:21:59;4.05;;;3.65;;